Urb Montemar, Puerto Rico
Current Conditions -  °F | °C
As of 11:53 AM on Thursday 23 Oct 2014 (Local Time) from TJNR Reporting Station
Few Clouds Few Clouds  
Wind Chill: 87°   Ceiling: Unl
Heat Index: 96°   Visibility: 10mi
Dew Point: 75°   Wind: 15mph
Humidity: 67%   Direction: 110°ESE
Pressure: 29.96"   Gusts: NA
Location:  18.3304°N, 65.6573°W
Report Text: TJNR 231553Z AUTO 11013KT 10SM FEW028 31/24 A2996 RMK AO2 SLP145 T03060239 $
Loading
Personal Weather Stations






























Interactive Weather Map
Tropical Storm Tracking
New forecast layout! Learn more

10-Day Weather Forecast

Advertisements
Track Severe Weather on mobile